createdAt,value
2023-06-02T00:01:33.122Z,74.38
2023-06-02T00:04:01.131Z,75.56
2023-06-02T00:06:32.080Z,75.27
2023-06-02T00:08:59.256Z,79.79
2023-06-02T00:11:26.526Z,77.70
2023-06-02T00:13:53.245Z,77.36
2023-06-02T00:16:19.864Z,81.57
2023-06-02T00:18:46.502Z,81.22
2023-06-02T00:21:13.623Z,80.13
2023-06-02T00:23:40.112Z,84.49
2023-06-02T00:26:06.615Z,83.20
2023-06-02T00:28:33.118Z,81.85
2023-06-02T00:30:59.683Z,80.08
2023-06-02T00:33:26.220Z,86.16
2023-06-02T00:35:52.822Z,83.54
2023-06-02T00:38:19.282Z,82.46
2023-06-02T00:40:45.925Z,84.56
2023-06-02T00:43:12.638Z,86.10
2023-06-02T00:45:39.150Z,82.89
2023-06-02T00:48:06.277Z,81.62
2023-06-02T00:50:33.643Z,81.67
2023-06-02T00:53:01.064Z,84.17
2023-06-02T00:55:31.431Z,82.42
2023-06-02T00:58:00.089Z,81.58
2023-06-02T01:00:28.032Z,80.84
2023-06-02T01:02:55.099Z,81.75
2023-06-02T01:05:21.852Z,84.30
2023-06-02T01:07:52.436Z,83.60
2023-06-02T01:10:22.410Z,83.55
2023-06-02T01:12:50.087Z,82.93
2023-06-02T01:15:16.699Z,88.25
2023-06-02T01:17:46.719Z,88.06
2023-06-02T01:20:16.545Z,86.45
2023-06-02T01:23:06.377Z,86.74
2023-06-02T01:25:33.619Z,86.91
2023-06-02T01:28:00.270Z,87.84
2023-06-02T01:30:27.347Z,87.86
2023-06-02T01:33:10.561Z,87.59
2023-06-02T01:35:43.988Z,85.67
2023-06-02T01:38:11.534Z,85.89
2023-06-02T01:40:39.185Z,86.99
2023-06-02T01:43:07.072Z,88.06
2023-06-02T01:45:34.792Z,88.85
2023-06-02T01:48:06.063Z,88.25
2023-06-02T01:50:35.317Z,87.19
2023-06-02T01:53:01.944Z,86.70
2023-06-02T01:55:28.640Z,87.52
2023-06-02T01:57:55.193Z,88.19
2023-06-02T02:00:22.118Z,86.39
2023-06-02T02:02:51.678Z,86.73
2023-06-02T02:05:18.770Z,86.62
2023-06-02T02:07:47.111Z,86.38
2023-06-02T02:10:14.381Z,87.37
2023-06-02T02:12:41.598Z,87.47
2023-06-02T02:15:08.629Z,87.43
2023-06-02T02:17:36.151Z,89.18
2023-06-02T02:20:06.822Z,88.88
2023-06-02T02:22:33.783Z,88.33
2023-06-02T02:25:00.904Z,88.82
2023-06-02T02:27:28.057Z,86.97
2023-06-02T02:29:54.649Z,89.26
2023-06-02T02:32:21.569Z,94.28
2023-06-02T02:34:49.522Z,92.17
2023-06-02T02:37:17.770Z,91.70
2023-06-02T02:39:44.336Z,90.36
2023-06-02T02:42:11.007Z,95.17
2023-06-02T02:44:37.559Z,95.11
2023-06-02T02:47:04.175Z,94.24
2023-06-02T02:49:30.754Z,92.56
2023-06-02T02:51:57.883Z,91.62
2023-06-02T02:54:25.197Z,93.12
2023-06-02T02:56:52.219Z,93.44
2023-06-02T02:59:18.786Z,90.81
2023-06-02T03:01:47.771Z,89.59
2023-06-02T03:04:23.306Z,91.76
2023-06-02T03:06:51.476Z,90.55
2023-06-02T03:09:18.008Z,92.57
2023-06-02T03:11:44.759Z,94.92
2023-06-02T03:14:11.585Z,92.94
2023-06-02T03:16:43.192Z,92.89
2023-06-02T03:19:10.109Z,92.46
2023-06-02T03:21:43.278Z,94.92
2023-06-02T03:24:17.703Z,94.44
2023-06-02T03:26:45.203Z,92.54
2023-06-02T03:29:13.673Z,91.86
2023-06-02T03:31:42.617Z,92.33
2023-06-02T03:34:09.292Z,91.63
2023-06-02T03:36:36.328Z,91.78
2023-06-02T03:39:06.844Z,93.92
2023-06-02T03:41:34.741Z,93.12
2023-06-02T03:44:02.353Z,91.50
2023-06-02T03:46:29.309Z,92.53
2023-06-02T03:48:56.336Z,91.95
2023-06-02T03:51:23.169Z,91.43
2023-06-02T03:53:52.540Z,91.28
2023-06-02T03:56:21.100Z,90.79
2023-06-02T03:58:47.664Z,90.13
2023-06-02T04:01:14.807Z,90.51
2023-06-02T04:03:42.880Z,90.51
2023-06-02T04:06:09.997Z,90.68
2023-06-02T04:08:37.061Z,91.22
2023-06-02T04:11:04.232Z,90.97
2023-06-02T04:13:31.076Z,89.22
2023-06-02T04:15:57.797Z,88.40
2023-06-02T04:18:24.352Z,87.73
2023-06-02T04:20:50.942Z,87.05
2023-06-02T04:23:17.504Z,85.48
2023-06-02T04:25:44.132Z,82.86
2023-06-02T04:28:10.644Z,78.40
2023-06-02T04:30:39.934Z,74.77
2023-06-02T04:33:06.559Z,70.95
2023-06-02T04:35:33.888Z,67.71
2023-06-02T04:38:00.477Z,62.63
2023-06-02T04:40:26.926Z,60.10
2023-06-02T04:42:53.461Z,57.61
2023-06-02T04:45:21.643Z,56.87
2023-06-02T04:47:49.138Z,55.65
2023-06-02T04:50:15.943Z,52.80
2023-06-02T04:52:43.804Z,52.32
2023-06-02T04:55:11.522Z,51.08
2023-06-02T04:57:38.767Z,49.71
2023-06-02T05:00:06.504Z,48.30
2023-06-02T05:02:33.444Z,47.63
2023-06-02T05:05:00.392Z,48.19
2023-06-02T05:07:27.090Z,47.46
2023-06-02T05:09:53.615Z,46.69
2023-06-02T05:12:20.199Z,46.13
2023-06-02T05:14:46.803Z,47.06
2023-06-02T05:17:13.359Z,44.88
2023-06-02T05:19:46.672Z,43.88
2023-06-02T05:22:13.790Z,42.93
2023-06-02T05:24:40.406Z,42.77
2023-06-02T05:27:08.310Z,42.12
2023-06-02T05:29:34.853Z,41.69
2023-06-02T05:32:01.454Z,41.27
2023-06-02T05:34:28.034Z,41.08
2023-06-02T05:36:54.595Z,40.53
2023-06-02T05:39:21.112Z,40.40
2023-06-02T05:41:47.576Z,40.63
2023-06-02T05:44:14.137Z,39.47
2023-06-02T05:46:40.966Z,39.31
2023-06-02T05:49:07.472Z,38.94
2023-06-02T05:51:33.983Z,38.95
2023-06-02T05:54:01.415Z,38.86
2023-06-02T05:56:27.940Z,38.85
2023-06-02T05:58:54.451Z,38.65
2023-06-02T06:01:20.919Z,38.19
2023-06-02T06:03:47.491Z,38.10
2023-06-02T06:06:14.038Z,38.49
2023-06-02T06:08:41.204Z,38.58
2023-06-02T06:11:07.717Z,37.91
2023-06-02T06:13:34.517Z,38.96
2023-06-02T06:16:01.167Z,37.90
2023-06-02T06:18:27.852Z,39.07
2023-06-02T06:20:54.414Z,37.17
2023-06-02T06:23:21.137Z,38.74
2023-06-02T06:25:47.772Z,36.79
2023-06-02T06:28:14.341Z,37.91
2023-06-02T06:30:41.258Z,37.68
2023-06-02T06:33:09.870Z,37.29
2023-06-02T06:35:36.793Z,36.13
2023-06-02T06:38:04.750Z,37.59
2023-06-02T06:40:32.561Z,34.74
2023-06-02T06:43:02.964Z,35.42
2023-06-02T06:45:34.915Z,35.58
2023-06-02T06:48:01.527Z,36.64
2023-06-02T06:50:28.757Z,35.55
2023-06-02T06:52:55.509Z,35.17
2023-06-02T06:55:22.050Z,35.19
2023-06-02T06:57:48.637Z,34.71
2023-06-02T07:00:15.970Z,35.67
2023-06-02T07:02:44.832Z,34.88
2023-06-02T07:05:11.874Z,35.19
2023-06-02T07:07:38.466Z,37.45
2023-06-02T07:10:05.823Z,36.33
2023-06-02T07:12:32.430Z,36.63
2023-06-02T07:14:59.158Z,35.06
2023-06-02T07:17:26.198Z,37.79
2023-06-02T07:19:53.159Z,37.00
2023-06-02T07:22:19.753Z,36.84
2023-06-02T07:24:53.820Z,36.05
2023-06-02T07:27:21.496Z,35.77
2023-06-02T07:29:49.478Z,34.64
2023-06-02T07:32:23.239Z,36.62
2023-06-02T07:34:52.819Z,36.40
2023-06-02T07:37:24.715Z,36.35
2023-06-02T07:39:55.649Z,35.21
2023-06-02T07:42:25.168Z,34.43
2023-06-02T07:44:51.747Z,34.57
2023-06-02T07:47:18.416Z,35.12
2023-06-02T07:49:45.188Z,34.92
2023-06-02T07:52:11.913Z,36.31
2023-06-02T07:54:41.167Z,36.66
2023-06-02T07:57:10.431Z,37.50
2023-06-02T07:59:38.158Z,36.69
2023-06-02T08:02:08.314Z,35.87
2023-06-02T08:04:40.424Z,36.80
2023-06-02T08:07:12.081Z,35.50
2023-06-02T08:13:26.008Z,33.77
2023-06-02T08:16:19.839Z,34.09
2023-06-02T08:18:47.011Z,34.02
2023-06-02T08:21:18.444Z,33.93
2023-06-02T08:23:50.596Z,35.86
2023-06-02T08:26:23.990Z,35.25
2023-06-02T08:43:25.615Z,34.90
2023-06-02T09:45:55.106Z,32.81
2023-06-02T09:48:31.457Z,33.50
2023-06-02T09:51:07.084Z,33.85
2023-06-02T09:53:44.365Z,33.74
2023-06-02T09:56:18.376Z,34.47
2023-06-02T09:58:52.823Z,36.74
2023-06-02T10:13:26.733Z,33.69
2023-06-02T10:16:26.504Z,33.13
2023-06-02T10:19:11.273Z,34.15
2023-06-02T10:22:03.698Z,33.67
2023-06-02T10:24:57.911Z,33.37
2023-06-02T10:27:41.833Z,32.78
2023-06-02T10:38:49.605Z,33.19
2023-06-02T10:41:26.418Z,33.59
2023-06-02T10:44:29.775Z,33.59
2023-06-02T10:47:22.510Z,32.61
2023-06-02T10:50:09.338Z,33.24
2023-06-02T10:53:04.013Z,34.06
2023-06-02T10:55:36.771Z,32.78
2023-06-02T10:58:09.014Z,32.50
2023-06-02T11:00:40.694Z,32.01
2023-06-02T11:03:12.888Z,32.88
2023-06-02T11:05:44.994Z,33.31
2023-06-02T11:08:20.998Z,32.57
2023-06-02T11:11:03.711Z,31.83
2023-06-02T11:13:35.737Z,33.35
2023-06-02T11:16:05.772Z,33.09
2023-06-02T11:18:32.811Z,32.50
2023-06-02T11:21:06.070Z,34.15
2023-06-02T11:23:37.322Z,33.17
2023-06-02T11:26:12.338Z,33.55
2023-06-02T11:28:47.658Z,33.64
2023-06-02T11:31:24.561Z,33.88
2023-06-02T11:36:43.294Z,34.48
2023-06-02T11:39:19.911Z,34.29
2023-06-02T11:41:57.621Z,34.72
2023-06-02T11:51:58.084Z,34.14
2023-06-02T12:13:41.566Z,33.32
2023-06-02T12:31:19.589Z,34.68
2023-06-02T12:33:46.936Z,36.48
2023-06-02T12:36:14.369Z,36.64
2023-06-02T12:43:28.312Z,35.92
2023-06-02T12:46:00.344Z,34.49
2023-06-02T12:48:31.605Z,34.57
2023-06-02T12:51:06.126Z,34.06
2023-06-02T12:53:40.391Z,33.09
2023-06-02T12:56:08.536Z,34.58
2023-06-02T12:58:35.445Z,35.68
2023-06-02T13:01:02.638Z,35.76
2023-06-02T13:04:32.323Z,35.01
2023-06-02T13:07:06.923Z,35.79
2023-06-02T13:13:29.752Z,33.97
2023-06-02T13:16:03.068Z,34.52
2023-06-02T13:18:30.365Z,34.95
2023-06-02T13:21:50.074Z,35.00
2023-06-02T13:35:45.085Z,34.58
2023-06-02T14:13:40.370Z,33.80
2023-06-02T14:16:27.547Z,35.07
2023-06-02T14:19:02.605Z,34.79
2023-06-02T14:21:35.284Z,34.19
2023-06-02T14:24:09.521Z,35.50
2023-06-02T14:26:40.756Z,34.42
2023-06-02T14:45:17.478Z,36.90
2023-06-02T15:15:49.211Z,34.18
2023-06-02T15:20:59.321Z,34.30
2023-06-02T15:23:39.292Z,33.52
2023-06-02T15:26:14.032Z,33.11
2023-06-02T15:28:45.691Z,33.77
2023-06-02T15:31:17.688Z,33.85
2023-06-02T15:33:50.856Z,34.02
2023-06-02T15:36:23.341Z,32.91
2023-06-02T15:38:55.687Z,33.30
2023-06-02T15:41:29.935Z,33.67
2023-06-02T15:44:01.154Z,33.21
2023-06-02T15:46:32.094Z,32.91
2023-06-02T15:49:07.649Z,33.05
2023-06-02T15:51:42.289Z,33.50
2023-06-02T15:54:14.419Z,33.71
2023-06-02T15:56:54.185Z,32.56
2023-06-02T15:59:27.709Z,31.98
2023-06-02T16:02:00.135Z,30.99
2023-06-02T16:04:30.573Z,30.65
2023-06-02T16:07:10.312Z,31.00
2023-06-02T16:09:42.239Z,31.06
2023-06-02T16:12:09.492Z,31.83
2023-06-02T16:14:37.703Z,31.01
2023-06-02T16:17:07.881Z,30.22
2023-06-02T16:22:44.524Z,30.98
2023-06-02T16:25:14.756Z,30.91
2023-06-02T16:27:45.067Z,30.90
2023-06-02T16:30:16.323Z,30.80
2023-06-02T16:32:44.424Z,30.08
2023-06-02T16:35:15.217Z,32.89
2023-06-02T16:37:42.268Z,30.77
2023-06-02T16:40:09.867Z,30.97
2023-06-02T16:42:36.647Z,30.53
2023-06-02T16:45:03.549Z,29.86
2023-06-02T16:47:30.472Z,30.13
2023-06-02T16:49:57.735Z,30.41
2023-06-02T16:52:24.997Z,30.61
2023-06-02T16:55:01.598Z,31.18
2023-06-02T16:57:29.354Z,31.19
2023-06-02T16:59:56.176Z,31.27
2023-06-02T17:02:23.630Z,31.62
2023-06-02T17:04:50.328Z,30.94
2023-06-02T17:07:17.310Z,31.42
2023-06-02T17:09:43.915Z,32.10
2023-06-02T17:12:10.542Z,31.91
2023-06-02T17:14:37.377Z,33.07
2023-06-02T17:17:04.227Z,32.13
2023-06-02T17:19:30.964Z,32.41
2023-06-02T17:21:57.808Z,33.08
2023-06-02T17:24:26.305Z,34.65
2023-06-02T17:26:53.128Z,34.47
2023-06-02T17:29:19.821Z,34.06
2023-06-02T17:31:46.478Z,35.48
2023-06-02T17:34:13.360Z,37.95
2023-06-02T17:36:42.649Z,36.67
2023-06-02T17:39:09.434Z,37.55
2023-06-02T17:41:36.267Z,38.49
2023-06-02T17:44:02.882Z,39.42
2023-06-02T17:46:30.484Z,39.17
2023-06-02T17:48:57.451Z,38.74
2023-06-02T17:51:26.079Z,39.12
2023-06-02T17:53:52.847Z,39.70
2023-06-02T17:56:19.910Z,39.18
2023-06-02T17:58:46.684Z,39.67
2023-06-02T18:01:13.426Z,40.32
2023-06-02T18:03:40.145Z,39.99
2023-06-02T18:06:07.556Z,39.95
2023-06-02T18:08:34.043Z,40.33
2023-06-02T18:11:00.555Z,41.02
2023-06-02T18:13:27.245Z,41.27
2023-06-02T18:15:53.796Z,41.41
2023-06-02T18:18:20.341Z,41.35
2023-06-02T18:20:47.420Z,41.69
2023-06-02T18:23:13.940Z,41.31
2023-06-02T18:25:41.123Z,41.33
2023-06-02T18:28:07.644Z,42.11
2023-06-02T18:30:34.098Z,42.21
2023-06-02T18:33:00.809Z,43.25
2023-06-02T18:35:27.352Z,44.32
2023-06-02T18:37:56.443Z,45.00
2023-06-02T18:40:23.622Z,46.21
2023-06-02T18:42:50.698Z,47.02
2023-06-02T18:45:17.205Z,48.78
2023-06-02T18:47:43.763Z,49.90
2023-06-02T18:50:10.611Z,51.26
2023-06-02T18:52:37.419Z,51.86
2023-06-02T18:55:04.146Z,53.20
2023-06-02T18:57:30.702Z,53.64
2023-06-02T18:59:57.699Z,54.27
2023-06-02T19:02:24.256Z,55.05
2023-06-02T19:04:52.599Z,55.50
2023-06-02T19:07:19.218Z,56.24
2023-06-02T19:09:45.929Z,56.51
2023-06-02T19:12:12.423Z,57.55
2023-06-02T19:14:38.919Z,57.92
2023-06-02T19:17:06.332Z,57.89
2023-06-02T19:19:32.917Z,58.35
2023-06-02T19:21:59.397Z,58.56
2023-06-02T19:24:25.891Z,58.83
2023-06-02T19:26:52.616Z,59.52
2023-06-02T19:29:19.663Z,59.37
2023-06-02T19:31:46.830Z,60.34
2023-06-02T19:34:13.373Z,60.29
2023-06-02T19:36:41.444Z,60.74
2023-06-02T19:39:09.280Z,59.64
2023-06-02T19:41:36.054Z,60.42
2023-06-02T19:44:02.898Z,59.60
2023-06-02T19:46:29.622Z,60.43
2023-06-02T19:48:56.377Z,60.18
2023-06-02T19:51:22.878Z,60.13
2023-06-02T19:53:49.423Z,60.04
2023-06-02T19:56:16.014Z,60.50
2023-06-02T19:58:42.745Z,60.54
2023-06-02T20:01:09.728Z,60.69
2023-06-02T20:03:36.635Z,60.56
2023-06-02T20:06:03.357Z,60.67
2023-06-02T20:08:29.984Z,61.41
2023-06-02T20:10:56.543Z,62.42
2023-06-02T20:13:23.283Z,62.48
2023-06-02T20:15:50.409Z,62.75
2023-06-02T20:18:17.241Z,62.58
2023-06-02T20:20:43.950Z,63.02
2023-06-02T20:23:10.458Z,63.37
2023-06-02T20:25:36.924Z,63.52
2023-06-02T20:28:04.751Z,64.08
2023-06-02T20:30:31.683Z,64.08
2023-06-02T20:32:59.104Z,64.00
2023-06-02T20:35:25.941Z,65.42
2023-06-02T20:37:52.460Z,64.79
2023-06-02T20:40:19.317Z,65.27
2023-06-02T20:42:46.008Z,65.47
2023-06-02T20:45:14.149Z,65.04
2023-06-02T20:47:41.534Z,65.34
2023-06-02T20:50:08.495Z,64.55
2023-06-02T20:52:35.037Z,65.09
2023-06-02T20:55:01.954Z,65.70
2023-06-02T20:57:28.477Z,65.44
2023-06-02T20:59:55.008Z,65.62
2023-06-02T21:02:21.653Z,65.30
2023-06-02T21:04:48.122Z,65.45
2023-06-02T21:07:14.628Z,65.27
2023-06-02T21:09:41.150Z,65.76
2023-06-02T21:12:08.286Z,66.31
2023-06-02T21:14:34.808Z,66.74
2023-06-02T21:17:01.442Z,66.50
2023-06-02T21:19:28.018Z,66.95
2023-06-02T21:21:54.539Z,67.03
2023-06-02T21:24:21.104Z,67.29
2023-06-02T21:26:47.571Z,66.50
2023-06-02T21:29:14.113Z,67.49
2023-06-02T21:34:22.045Z,68.08
2023-06-02T21:36:48.510Z,67.62
2023-06-02T21:39:14.971Z,68.13
2023-06-02T21:41:43.384Z,68.26
2023-06-02T21:44:09.809Z,68.65
2023-06-02T21:46:36.632Z,68.64
2023-06-02T21:51:41.597Z,69.43
2023-06-02T21:54:08.141Z,69.53
2023-06-02T21:56:35.932Z,69.67
2023-06-02T21:59:04.790Z,69.65
2023-06-02T22:01:31.955Z,70.12
2023-06-02T22:03:58.782Z,69.87
2023-06-02T22:06:25.919Z,70.50
2023-06-02T22:08:52.514Z,70.17
2023-06-02T22:11:23.894Z,71.23
2023-06-02T22:13:51.668Z,70.45
2023-06-02T22:16:18.437Z,71.45
2023-06-02T22:18:45.122Z,72.44
2023-06-02T22:21:12.950Z,72.49
2023-06-02T22:23:39.542Z,72.46
2023-06-02T22:26:06.094Z,71.56
2023-06-02T22:28:32.910Z,72.03
2023-06-02T22:30:59.447Z,72.49
2023-06-02T22:33:26.047Z,72.01
2023-06-02T22:35:52.555Z,73.02
2023-06-02T22:38:19.122Z,73.57
2023-06-02T22:40:45.688Z,73.71
2023-06-02T22:43:12.154Z,72.76
2023-06-02T22:45:38.667Z,73.66
2023-06-02T22:48:05.277Z,74.95
2023-06-02T22:50:31.883Z,74.06
2023-06-02T22:52:58.696Z,74.27
2023-06-02T22:55:25.252Z,75.14
2023-06-02T22:57:51.816Z,74.74
2023-06-02T23:00:18.341Z,74.57
2023-06-02T23:02:44.943Z,74.87
2023-06-02T23:05:11.473Z,75.09
2023-06-02T23:07:39.748Z,74.95
2023-06-02T23:10:07.005Z,75.67
2023-06-02T23:12:33.463Z,75.43
2023-06-02T23:14:59.968Z,74.73
2023-06-02T23:17:26.550Z,74.63
2023-06-02T23:19:53.042Z,74.23
2023-06-02T23:22:19.707Z,75.03
2023-06-02T23:24:46.263Z,75.48
2023-06-02T23:27:13.916Z,75.60
2023-06-02T23:29:41.372Z,75.52
2023-06-02T23:32:08.141Z,75.84
2023-06-02T23:34:34.915Z,75.50
2023-06-02T23:37:01.416Z,75.18
2023-06-02T23:39:27.917Z,76.25
2023-06-02T23:41:54.395Z,76.29
2023-06-02T23:44:21.729Z,77.25
2023-06-02T23:46:48.365Z,76.15
2023-06-02T23:49:15.048Z,75.89
2023-06-02T23:51:41.946Z,75.99
2023-06-02T23:54:08.505Z,76.22
2023-06-02T23:56:35.058Z,76.37
2023-06-02T23:59:01.612Z,76.07
